createdAt,value
2018-04-19T00:02:01.029Z,6.10
2018-04-19T00:04:28.621Z,6.33
2018-04-19T00:06:56.991Z,6.70
2018-04-19T00:09:24.590Z,5.93
2018-04-19T00:11:52.214Z,5.80
2018-04-19T00:14:19.820Z,5.77
2018-04-19T00:16:47.462Z,6.70
2018-04-19T00:19:15.099Z,5.63
2018-04-19T00:21:43.473Z,5.83
2018-04-19T00:24:11.062Z,5.73
2018-04-19T00:26:39.462Z,5.40
2018-04-19T00:29:07.109Z,5.70
2018-04-19T00:31:34.746Z,5.33
2018-04-19T00:34:03.104Z,5.83
2018-04-19T00:36:30.696Z,6.00
2018-04-19T00:38:59.049Z,5.60
2018-04-19T00:41:26.633Z,5.53
2018-04-19T00:43:54.988Z,5.30
2018-04-19T00:46:22.588Z,5.90
2018-04-19T00:48:50.182Z,5.43
2018-04-19T00:51:17.776Z,5.43
2018-04-19T00:53:45.368Z,5.77
2018-04-19T00:56:12.960Z,5.70
2018-04-19T00:58:40.554Z,5.47
2018-04-19T01:01:08.140Z,6.03
2018-04-19T01:03:36.493Z,5.73
2018-04-19T01:06:04.085Z,5.50
2018-04-19T01:08:31.679Z,5.87
2018-04-19T01:10:59.269Z,5.43
2018-04-19T01:13:26.898Z,5.60
2018-04-19T01:15:54.521Z,5.00
2018-04-19T01:18:22.160Z,4.83
2018-04-19T01:20:50.583Z,5.53
2018-04-19T01:23:18.182Z,5.23
2018-04-19T01:25:45.821Z,5.40
2018-04-19T01:28:13.410Z,5.23
2018-04-19T01:30:41.008Z,5.03
2018-04-19T01:33:08.602Z,5.17
2018-04-19T01:35:47.934Z,5.00
2018-04-19T01:38:15.516Z,5.27
2018-04-19T01:40:43.116Z,4.87
2018-04-19T01:43:11.508Z,4.97
2018-04-19T01:45:39.096Z,5.20
2018-04-19T01:48:06.687Z,5.30
2018-04-19T01:50:34.275Z,5.00
2018-04-19T01:53:01.864Z,5.17
2018-04-19T01:55:29.504Z,4.87
2018-04-19T01:57:57.106Z,4.47
2018-04-19T02:00:24.693Z,4.83
2018-04-19T02:02:52.280Z,4.70
2018-04-19T02:05:19.865Z,5.00
2018-04-19T02:07:47.449Z,4.77
2018-04-19T02:10:15.065Z,5.10
2018-04-19T02:12:42.651Z,5.17
2018-04-19T02:15:10.237Z,5.27
2018-04-19T02:17:37.817Z,4.73
2018-04-19T02:20:05.408Z,4.87
2018-04-19T02:22:32.995Z,5.47
2018-04-19T02:25:00.576Z,5.03
2018-04-19T02:27:28.173Z,5.00
2018-04-19T02:29:56.519Z,4.87
2018-04-19T02:32:24.180Z,4.80
2018-04-19T02:34:51.764Z,5.10
2018-04-19T02:37:20.124Z,4.73
2018-04-19T02:39:47.714Z,5.00
2018-04-19T02:42:16.065Z,4.70
2018-04-19T02:44:43.658Z,4.50
2018-04-19T02:47:11.247Z,4.33
2018-04-19T02:49:38.837Z,4.70
2018-04-19T02:52:06.442Z,4.23
2018-04-19T02:54:34.098Z,4.70
2018-04-19T02:57:01.655Z,4.30
2018-04-19T02:59:29.318Z,5.23
2018-04-19T03:01:56.936Z,4.80
2018-04-19T03:04:24.532Z,4.80
2018-04-19T03:06:52.901Z,5.40
2018-04-19T03:09:21.266Z,5.17
2018-04-19T03:11:48.861Z,5.33
2018-04-19T03:14:16.460Z,5.03
2018-04-19T03:16:44.118Z,5.00
2018-04-19T03:19:11.705Z,5.03
2018-04-19T03:21:39.331Z,5.10
2018-04-19T03:24:06.920Z,4.60
2018-04-19T03:26:34.513Z,4.80
2018-04-19T03:29:02.884Z,4.30
2018-04-19T03:31:31.242Z,4.30
2018-04-19T03:33:58.837Z,4.60
2018-04-19T03:36:26.420Z,4.50
2018-04-19T03:38:54.189Z,5.07
2018-04-19T03:41:21.781Z,4.57
2018-04-19T03:43:49.373Z,4.47
2018-04-19T03:46:17.729Z,4.30
2018-04-19T03:48:45.316Z,4.53
2018-04-19T03:51:13.678Z,4.10
2018-04-19T03:53:42.042Z,4.60
2018-04-19T03:56:09.645Z,4.60
2018-04-19T03:58:37.294Z,4.47
2018-04-19T04:01:05.708Z,4.37
2018-04-19T04:03:34.021Z,4.60
2018-04-19T04:06:01.610Z,4.80
2018-04-19T04:08:29.952Z,5.00
2018-04-19T04:10:57.539Z,4.77
2018-04-19T04:13:25.949Z,4.90
2018-04-19T04:15:53.529Z,5.40
2018-04-19T04:18:46.877Z,5.13
2018-04-19T04:21:18.355Z,4.90
2018-04-19T04:23:54.144Z,5.20
2018-04-19T04:26:22.836Z,4.83
2018-04-19T04:28:51.229Z,4.97
2018-04-19T04:31:18.956Z,4.80
2018-04-19T04:33:47.448Z,4.77
2018-04-19T04:36:15.800Z,5.00
2018-04-19T04:38:43.529Z,5.30
2018-04-19T04:41:11.124Z,7.50
2018-04-19T04:51:08.917Z,4.70
2018-04-19T04:53:36.544Z,4.80
2018-04-19T04:56:05.004Z,4.70
2018-04-19T04:58:32.584Z,5.10
2018-04-19T05:01:00.237Z,5.03
2018-04-19T05:03:27.821Z,5.90
2018-04-19T05:05:56.260Z,5.00
2018-04-19T05:08:23.924Z,5.60
2018-04-19T05:10:51.515Z,5.53
2018-04-19T05:13:19.864Z,5.63
2018-04-19T05:15:47.452Z,6.00
2018-04-19T05:18:15.866Z,6.30
2018-04-19T05:20:43.444Z,6.10
2018-04-19T05:23:11.059Z,6.23
2018-04-19T05:25:38.632Z,6.80
2018-04-19T05:28:06.236Z,6.80
2018-04-19T05:30:33.887Z,6.80
2018-04-19T05:33:01.467Z,6.77
2018-04-19T05:35:29.103Z,6.57
2018-04-19T05:37:56.728Z,6.60
2018-04-19T05:40:24.313Z,6.83
2018-04-19T05:42:51.933Z,7.00
2018-04-19T05:45:20.328Z,7.30
2018-04-19T05:47:47.956Z,6.93
2018-04-19T05:50:16.419Z,6.57
2018-04-19T05:52:44.016Z,6.60
2018-04-19T05:55:12.395Z,6.90
2018-04-19T05:57:44.868Z,7.53
2018-04-19T06:00:13.219Z,6.20
2018-04-19T06:02:40.792Z,6.50
2018-04-19T06:05:08.369Z,7.23
2018-04-19T06:07:35.949Z,6.80
2018-04-19T06:10:03.527Z,6.97
2018-04-19T06:12:31.116Z,6.30
2018-04-19T06:14:58.696Z,7.30
2018-04-19T06:17:27.036Z,6.07
2018-04-19T06:19:54.640Z,5.97
2018-04-19T06:22:22.252Z,6.37
2018-04-19T06:24:49.827Z,5.43
2018-04-19T06:27:17.419Z,5.33
2018-04-19T06:29:45.001Z,5.97
2018-04-19T06:32:12.644Z,5.70
2018-04-19T06:34:40.226Z,4.87
2018-04-19T06:37:07.804Z,4.80
2018-04-19T06:39:35.376Z,5.47
2018-04-19T06:42:02.956Z,4.90
2018-04-19T06:44:31.346Z,4.97
2018-04-19T06:46:58.955Z,4.80
2018-04-19T06:49:26.531Z,5.00
2018-04-19T06:51:54.109Z,4.80
2018-04-19T06:54:22.451Z,4.83
2018-04-19T06:56:50.033Z,4.67
2018-04-19T06:59:18.376Z,4.50
2018-04-19T07:01:45.952Z,4.40
2018-04-19T07:04:13.567Z,4.73
2018-04-19T07:06:41.144Z,4.63
2018-04-19T07:09:08.760Z,3.90
2018-04-19T07:11:37.120Z,4.13
2018-04-19T07:14:05.469Z,4.27
2018-04-19T07:16:33.049Z,4.13
2018-04-19T07:19:00.628Z,3.53
2018-04-19T07:21:28.972Z,4.00
2018-04-19T07:23:56.552Z,4.27
2018-04-19T07:26:24.939Z,3.73
2018-04-19T07:28:53.287Z,4.07
2018-04-19T07:31:20.902Z,3.70
2018-04-19T07:33:48.571Z,4.03
2018-04-19T07:36:16.153Z,3.63
2018-04-19T07:38:43.743Z,3.93
2018-04-19T07:41:12.087Z,3.67
2018-04-19T07:43:39.671Z,3.80
2018-04-19T07:46:08.097Z,3.40
2018-04-19T07:48:35.680Z,3.73
2018-04-19T07:51:03.292Z,3.93
2018-04-19T07:53:30.864Z,3.87
2018-04-19T07:55:59.220Z,3.23
2018-04-19T07:58:26.831Z,3.60
2018-04-19T08:00:54.447Z,3.37
2018-04-19T08:03:22.088Z,2.93
2018-04-19T08:05:49.667Z,3.07
2018-04-19T08:08:17.249Z,3.10
2018-04-19T08:10:44.836Z,2.90
2018-04-19T08:13:12.417Z,2.70
2018-04-19T08:15:40.846Z,3.10
2018-04-19T08:18:08.440Z,3.27
2018-04-19T08:20:36.016Z,3.40
2018-04-19T08:23:04.402Z,3.47
2018-04-19T08:25:32.740Z,3.10
2018-04-19T08:28:00.319Z,3.40
2018-04-19T08:30:28.668Z,3.00
2018-04-19T08:32:56.247Z,3.20
2018-04-19T08:35:23.859Z,3.10
2018-04-19T08:37:51.426Z,2.87
2018-04-19T08:40:19.008Z,3.00
2018-04-19T08:42:46.596Z,2.60
2018-04-19T08:45:14.939Z,2.97
2018-04-19T08:47:42.512Z,2.97
2018-04-19T08:50:10.178Z,2.90
2018-04-19T08:52:37.728Z,4.00
2018-04-19T08:55:05.312Z,3.13
2018-04-19T08:57:33.652Z,3.20
2018-04-19T09:00:01.234Z,2.97
2018-04-19T09:02:29.584Z,3.17
2018-04-19T09:04:57.167Z,3.00
2018-04-19T09:07:25.518Z,2.80
2018-04-19T09:09:53.132Z,2.90
2018-04-19T09:12:20.718Z,3.83
2018-04-19T09:14:48.323Z,2.97
2018-04-19T09:17:16.675Z,3.20
2018-04-19T09:19:44.247Z,2.90
2018-04-19T09:22:11.829Z,3.00
2018-04-19T09:24:39.452Z,2.97
2018-04-19T09:27:07.040Z,3.10
2018-04-19T09:29:35.432Z,3.00
2018-04-19T09:32:03.007Z,3.00
2018-04-19T09:34:30.621Z,3.10
2018-04-19T09:36:58.208Z,3.00
2018-04-19T09:39:25.843Z,2.80
2018-04-19T09:41:54.194Z,3.37
2018-04-19T09:44:21.772Z,3.03
2018-04-19T09:46:49.355Z,2.80
2018-04-19T09:49:16.941Z,2.67
2018-04-19T09:51:45.309Z,2.93
2018-04-19T09:54:12.991Z,2.60
2018-04-19T09:56:55.265Z,2.70
2018-04-19T09:59:22.842Z,2.93
2018-04-19T10:01:52.280Z,2.90
2018-04-19T10:04:25.575Z,2.70
2018-04-19T10:06:53.156Z,2.80
2018-04-19T10:09:20.764Z,3.10
2018-04-19T10:11:48.349Z,2.47
2018-04-19T10:14:15.932Z,2.30
2018-04-19T10:16:44.272Z,2.40
2018-04-19T10:19:11.888Z,2.17
2018-04-19T10:21:39.505Z,2.67
2018-04-19T10:24:07.096Z,4.40
2018-04-19T10:26:34.677Z,2.60
2018-04-19T10:29:02.260Z,2.60
2018-04-19T10:31:29.840Z,2.87
2018-04-19T10:33:57.420Z,2.83
2018-04-19T10:36:25.759Z,2.60
2018-04-19T10:38:53.336Z,3.00
2018-04-19T10:41:20.912Z,2.63
2018-04-19T10:43:49.259Z,2.80
2018-04-19T10:46:16.846Z,2.60
2018-04-19T10:48:45.204Z,2.53
2018-04-19T10:51:12.785Z,2.73
2018-04-19T10:53:40.388Z,2.37
2018-04-19T10:56:07.963Z,2.17
2018-04-19T10:58:36.543Z,2.60
2018-04-19T11:01:04.127Z,2.70
2018-04-19T11:03:32.551Z,2.70
2018-04-19T11:06:00.168Z,2.60
2018-04-19T11:08:28.524Z,2.83
2018-04-19T11:10:56.107Z,2.70
2018-04-19T11:13:24.455Z,2.60
2018-04-19T11:15:52.062Z,2.23
2018-04-19T11:18:19.639Z,2.40
2018-04-19T11:20:47.224Z,2.50
2018-04-19T11:23:14.808Z,3.23
2018-04-19T11:25:43.148Z,2.53
2018-04-19T11:28:10.763Z,2.53
2018-04-19T11:30:38.345Z,2.50
2018-04-19T11:33:05.924Z,2.50
2018-04-19T11:35:33.500Z,2.47
2018-04-19T11:38:01.092Z,2.40
2018-04-19T11:40:28.683Z,2.57
2018-04-19T11:42:56.261Z,2.90
2018-04-19T11:45:23.880Z,3.17
2018-04-19T11:47:51.463Z,3.00
2018-04-19T11:50:19.084Z,2.60
2018-04-19T11:52:47.414Z,2.60
2018-04-19T11:55:15.004Z,2.67
2018-04-19T11:57:43.392Z,3.00
2018-04-19T12:00:10.989Z,2.90
2018-04-19T12:02:38.568Z,2.60
2018-04-19T12:05:06.153Z,2.87
2018-04-19T12:07:34.575Z,3.20
2018-04-19T12:10:02.165Z,3.20
2018-04-19T12:12:29.740Z,4.77
2018-04-19T12:14:57.355Z,3.03
2018-04-19T12:17:24.941Z,3.10
2018-04-19T12:19:52.980Z,3.00
2018-04-19T12:22:21.328Z,2.90
2018-04-19T12:24:49.674Z,2.87
2018-04-19T12:27:17.248Z,3.20
2018-04-19T12:29:45.595Z,3.20
2018-04-19T12:32:13.225Z,2.90
2018-04-19T12:34:45.658Z,3.30
2018-04-19T12:37:14.004Z,3.00
2018-04-19T12:39:41.580Z,3.10
2018-04-19T12:42:09.200Z,3.20
2018-04-19T12:44:36.788Z,2.80
2018-04-19T12:47:04.363Z,2.90
2018-04-19T12:49:32.002Z,3.53
2018-04-19T12:51:59.583Z,2.77
2018-04-19T12:54:27.932Z,3.10
2018-04-19T12:59:27.368Z,3.00
2018-04-19T13:01:56.699Z,2.70
2018-04-19T13:04:24.334Z,3.13
2018-04-19T13:06:52.688Z,3.20
2018-04-19T13:09:20.267Z,3.27
2018-04-19T13:11:48.624Z,3.05
2018-04-19T13:14:16.207Z,3.05
2018-04-19T13:16:44.568Z,3.05
2018-04-19T13:19:12.154Z,2.80
2018-04-19T13:21:39.741Z,2.97
2018-04-19T13:24:13.232Z,3.00
2018-04-19T13:26:40.824Z,6.70
2018-04-19T13:29:08.412Z,3.25
2018-04-19T13:31:36.048Z,3.00
2018-04-19T13:34:03.635Z,3.00
2018-04-19T13:36:31.225Z,3.30
2018-04-19T13:38:59.580Z,3.30
2018-04-19T13:41:27.208Z,3.28
2018-04-19T13:43:54.795Z,3.00
2018-04-19T13:46:22.390Z,3.33
2018-04-19T13:48:49.980Z,3.25
2018-04-19T13:51:17.597Z,3.28
2018-04-19T13:53:45.993Z,3.28
2018-04-19T13:56:13.648Z,3.50
2018-04-19T13:58:41.236Z,3.22
2018-04-19T14:01:08.854Z,3.10
2018-04-19T14:03:36.448Z,2.75
2018-04-19T14:06:04.039Z,3.95
2018-04-19T14:08:31.624Z,3.78
2018-04-19T14:10:59.224Z,3.60
2018-04-19T14:13:26.804Z,2.80
2018-04-19T14:15:54.384Z,3.20
2018-04-19T14:18:21.975Z,3.10
2018-04-19T14:20:50.358Z,3.00
2018-04-19T14:23:18.254Z,3.15
2018-04-19T14:25:45.868Z,3.03
2018-04-19T14:28:14.275Z,3.03
2018-04-19T14:30:42.724Z,2.90
2018-04-19T14:33:10.308Z,2.90
2018-04-19T14:35:37.906Z,3.20
2018-04-19T14:38:06.341Z,3.20
2018-04-19T14:40:34.003Z,2.78
2018-04-19T14:43:01.655Z,3.30
2018-04-19T14:45:30.076Z,2.90
2018-04-19T14:47:57.701Z,2.90
2018-04-19T14:50:26.064Z,2.85
2018-04-19T14:52:55.748Z,2.83
2018-04-19T14:55:25.426Z,3.08
2018-04-19T14:57:53.467Z,2.55
2018-04-19T15:00:21.076Z,2.67
2018-04-19T15:02:48.670Z,2.55
2018-04-19T15:05:21.242Z,2.75
2018-04-19T15:07:50.150Z,2.72
2018-04-19T15:10:18.102Z,2.62
2018-04-19T15:12:46.115Z,2.78
2018-04-19T15:15:16.238Z,2.78
2018-04-19T15:17:45.781Z,2.47
2018-04-19T15:20:14.165Z,2.35
2018-04-19T15:22:42.229Z,2.78
2018-04-19T15:25:09.810Z,2.53
2018-04-19T15:27:37.417Z,2.40
2018-04-19T15:30:05.992Z,2.60
2018-04-19T15:32:39.194Z,3.00
2018-04-19T15:35:06.785Z,2.58
2018-04-19T15:37:35.196Z,2.65
2018-04-19T15:40:03.541Z,2.90
2018-04-19T15:42:31.123Z,2.55
2018-04-19T15:44:58.708Z,2.62
2018-04-19T15:47:26.290Z,2.28
2018-04-19T15:49:54.661Z,2.75
2018-04-19T15:52:22.284Z,2.70
2018-04-19T15:54:49.880Z,2.58
2018-04-19T15:57:17.462Z,3.00
2018-04-19T15:59:45.089Z,2.70
2018-04-19T16:02:12.854Z,2.37
2018-04-19T16:04:40.428Z,2.50
2018-04-19T16:07:08.900Z,2.50
2018-04-19T16:09:36.505Z,2.28
2018-04-19T16:12:04.930Z,2.30
2018-04-19T16:14:32.594Z,2.20
2018-04-19T16:17:00.176Z,2.37
2018-04-19T16:19:27.764Z,2.30
2018-04-19T16:21:56.117Z,2.47
2018-04-19T16:24:23.701Z,2.40
2018-04-19T16:26:52.053Z,2.47
2018-04-19T16:29:19.652Z,2.58
2018-04-19T16:31:47.233Z,2.75
2018-04-19T16:34:14.820Z,2.90
2018-04-19T16:36:42.397Z,3.67
2018-04-19T16:39:09.984Z,3.10
2018-04-19T16:41:38.368Z,2.65
2018-04-19T16:44:05.967Z,2.40
2018-04-19T16:46:33.560Z,2.58
2018-04-19T16:49:01.141Z,2.50
2018-04-19T16:51:28.723Z,3.70
2018-04-19T16:53:56.301Z,4.70
2018-04-19T16:56:24.013Z,8.93
2018-04-19T16:58:52.388Z,8.95
2018-04-19T17:01:20.756Z,9.90
2018-04-19T17:03:49.113Z,10.10
2018-04-19T17:06:16.744Z,8.55
2018-04-19T17:08:44.324Z,7.45
2018-04-19T17:11:11.931Z,7.65
2018-04-19T17:13:39.520Z,7.85
2018-04-19T17:16:07.111Z,7.15
2018-04-19T17:18:34.696Z,4.80
2018-04-19T17:21:03.042Z,4.62
2018-04-19T17:23:30.632Z,5.15
2018-04-19T17:25:58.216Z,3.95
2018-04-19T17:28:25.810Z,3.97
2018-04-19T17:30:53.400Z,3.42
2018-04-19T17:33:21.748Z,3.28
2018-04-19T17:35:49.328Z,3.70
2018-04-19T17:38:17.671Z,3.67
2018-04-19T17:40:45.263Z,3.78
2018-04-19T17:43:13.644Z,3.92
2018-04-19T17:45:41.983Z,3.47
2018-04-19T17:48:09.567Z,3.70
2018-04-19T17:50:37.931Z,3.53
2018-04-19T17:53:05.543Z,3.90
2018-04-19T17:55:33.128Z,2.97
2018-04-19T17:58:00.719Z,3.73
2018-04-19T18:00:29.110Z,3.30
2018-04-19T18:02:57.463Z,3.97
2018-04-19T18:05:25.052Z,3.53
2018-04-19T18:07:52.632Z,3.90
2018-04-19T18:10:20.228Z,3.87
2018-04-19T18:12:48.345Z,4.17
2018-04-19T18:15:15.939Z,5.00
2018-04-19T18:17:43.540Z,4.50
2018-04-19T18:20:11.891Z,4.30
2018-04-19T18:22:39.492Z,3.53
2018-04-19T18:25:07.090Z,3.97
2018-04-19T18:27:34.676Z,4.43
2018-04-19T18:30:02.269Z,3.70
2018-04-19T18:32:30.820Z,4.00
2018-04-19T18:34:58.403Z,3.83
2018-04-19T18:37:26.021Z,4.57
2018-04-19T18:39:54.456Z,3.83
2018-04-19T18:42:22.072Z,3.80
2018-04-19T18:47:43.571Z,3.30
2018-04-19T18:50:11.160Z,3.87
2018-04-19T18:52:43.433Z,3.87
2018-04-19T18:55:24.603Z,4.13
2018-04-19T18:57:53.046Z,4.13
2018-04-19T19:02:57.457Z,3.70
2018-04-19T19:05:25.941Z,10.03
2018-04-19T19:07:53.603Z,4.53
2018-04-19T19:10:21.417Z,4.23
2018-04-19T19:12:49.790Z,4.73
2018-04-19T19:18:51.693Z,4.60
2018-04-19T19:21:19.337Z,4.20
2018-04-19T19:23:46.949Z,4.30
2018-04-19T19:26:15.794Z,4.30
2018-04-19T19:28:43.555Z,4.13
2018-04-19T19:31:11.884Z,4.03
2018-04-19T19:33:39.466Z,4.20
2018-04-19T19:36:07.152Z,4.17
2018-04-19T19:38:35.665Z,4.20
2018-04-19T19:41:03.452Z,4.33
2018-04-19T19:43:31.074Z,3.53
2018-04-19T19:45:58.715Z,4.20
2018-04-19T19:48:26.493Z,3.90
2018-04-19T19:50:54.157Z,3.77
2018-04-19T19:53:22.019Z,4.20
2018-04-19T19:55:49.706Z,4.23
2018-04-19T19:58:18.146Z,4.03
2018-04-19T20:00:46.054Z,4.03
2018-04-19T20:03:14.665Z,4.23
2018-04-19T20:05:42.321Z,4.03
2018-04-19T20:08:09.976Z,3.97
2018-04-19T20:10:38.573Z,4.33
2018-04-19T20:13:06.455Z,4.30
2018-04-19T20:15:34.176Z,4.47
2018-04-19T20:18:01.806Z,4.33
2018-04-19T20:20:29.458Z,4.47
2018-04-19T20:22:57.070Z,4.60
2018-04-19T20:25:25.817Z,3.90
2018-04-19T20:27:53.550Z,5.07
2018-04-19T20:30:21.273Z,4.90
2018-04-19T20:32:49.687Z,4.73
2018-04-19T20:35:17.313Z,5.00
2018-04-19T20:37:44.950Z,4.80
2018-04-19T20:40:12.593Z,4.83
2018-04-19T20:42:40.349Z,4.53
2018-04-19T20:45:07.952Z,5.20
2018-04-19T20:47:35.659Z,4.63
2018-04-19T20:50:03.277Z,5.13
2018-04-19T20:52:30.928Z,5.33
2018-04-19T20:54:58.525Z,5.20
2018-04-19T20:57:26.189Z,4.90
2018-04-19T20:59:53.901Z,5.30
2018-04-19T21:02:21.594Z,4.90
2018-04-19T21:04:49.274Z,5.73
2018-04-19T21:07:16.872Z,4.80
2018-04-19T21:09:44.568Z,4.90
2018-04-19T21:12:12.483Z,5.20
2018-04-19T21:14:40.141Z,5.03
2018-04-19T21:17:07.792Z,5.17
2018-04-19T21:19:35.416Z,5.00
2018-04-19T21:22:03.053Z,4.40
2018-04-19T21:24:31.091Z,4.57
2018-04-19T21:26:59.355Z,5.20
2018-04-19T21:29:26.958Z,4.70
2018-04-19T21:31:54.600Z,4.77
2018-04-19T21:34:22.198Z,4.53
2018-04-19T21:36:49.836Z,4.60
2018-04-19T21:39:18.992Z,4.70
2018-04-19T21:41:47.396Z,4.23
2018-04-19T21:44:15.074Z,4.33
2018-04-19T21:46:42.709Z,4.47
2018-04-19T21:49:10.353Z,4.23
2018-04-19T21:51:38.707Z,4.67
2018-04-19T21:54:06.296Z,4.87
2018-04-19T21:56:34.712Z,4.43
2018-04-19T21:59:02.351Z,4.10
2018-04-19T22:01:29.934Z,4.10
2018-04-19T22:03:57.572Z,4.07
2018-04-19T22:06:25.176Z,4.17
2018-04-19T22:08:52.816Z,4.87
2018-04-19T22:11:20.469Z,4.07
2018-04-19T22:13:48.104Z,4.27
2018-04-19T22:16:16.529Z,4.20
2018-04-19T22:18:44.136Z,4.43
2018-04-19T22:21:12.482Z,4.37
2018-04-19T22:23:40.120Z,4.40
2018-04-19T22:26:07.708Z,4.43
2018-04-19T22:28:35.345Z,4.67
2018-04-19T22:31:02.920Z,4.57
2018-04-19T22:33:30.556Z,4.70
2018-04-19T22:35:58.136Z,4.50
2018-04-19T22:38:25.716Z,4.43
2018-04-19T22:40:53.350Z,4.30
2018-04-19T22:43:20.936Z,4.83
2018-04-19T22:45:49.313Z,4.83
2018-04-19T22:48:16.984Z,4.03
2018-04-19T22:50:44.604Z,4.27
2018-04-19T22:53:12.185Z,4.47
2018-04-19T22:55:39.761Z,4.13
2018-04-19T22:58:07.393Z,4.40
2018-04-19T23:00:34.977Z,4.63
2018-04-19T23:03:02.617Z,4.20
2018-04-19T23:05:30.195Z,4.30
2018-04-19T23:07:57.828Z,4.30
2018-04-19T23:10:25.408Z,3.90
2018-04-19T23:12:53.045Z,4.30
2018-04-19T23:15:20.624Z,4.67
2018-04-19T23:17:48.269Z,3.93
2018-04-19T23:20:15.849Z,4.07
2018-04-19T23:22:43.444Z,4.50
2018-04-19T23:25:11.844Z,4.50
2018-04-19T23:27:39.426Z,4.07
2018-04-19T23:30:07.060Z,4.17
2018-04-19T23:32:34.679Z,3.97
2018-04-19T23:35:02.264Z,4.30
2018-04-19T23:37:30.613Z,4.40
2018-04-19T23:39:58.200Z,4.10
2018-04-19T23:42:26.580Z,4.00
2018-04-19T23:44:54.979Z,4.33
2018-04-19T23:47:22.612Z,4.53
2018-04-19T23:49:50.964Z,3.67
2018-04-19T23:52:18.583Z,4.03
2018-04-19T23:54:46.169Z,3.87
2018-04-19T23:57:13.832Z,4.13
2018-04-19T23:59:41.421Z,3.97
